Terminal Aerodrome Forecast
Issued by NWS Charleston, SC

Current Version | Previous Version | Text Only | Print | Product List | Glossary On
Versions: 1 2 3 4 5 6 7 8 9 10 11 12 13 14 15 16 17 18 19 20 21 22 23 24 25 26
000
FTUS42 KCHS 271131
TAFSAV
TAF
KSAV 271131Z 2712/2812 01010KT P6SM SCT009 BKN012
      TEMPO 2712/2714 BKN009
     FM271430 35006KT P6SM BKN035
     FM271800 VRB06KT P6SM SCT040 BKN250
     FM280000 VRB04KT P6SM SCT040 BKN150=

USA.gov is the U.S. government's official web portal to all federal, state and local government web resources and services.